Time;durP1;ratioP1;P1;durP2;ratioP2;P2;SDS_P1;SDS_P2;PMS_P1;PMS_P2;Temp;Humidity;BMP_temperature;BMP_pressure;BME280_temperature;BME280_humidity;BME280_pressure;Samples;Min_cycle;Max_cycle;Signal;HPM_P1;HPM_P2
2022/03/11 00:01:05;;;;;;;30.90;27.60;;;;;;;-5.40;51.51;99581.09;105707;1281;22676;-77
2022/03/11 00:03:33;;;;;;;28.10;25.10;;;;;;;-5.33;51.69;99581.86;105593;1280;26648;-77
2022/03/11 00:06:02;;;;;;;29.00;26.00;;;;;;;-5.27;51.68;99581.01;106280;1280;22627;-78
2022/03/11 00:08:30;;;;;;;26.50;23.80;;;;;;;-5.20;51.86;99581.70;106520;1278;25383;-77
2022/03/11 00:10:57;;;;;;;29.40;25.70;;;;;;;-5.11;51.81;99582.95;105855;1279;24134;-77
2022/03/11 00:13:25;;;;;;;30.10;26.60;;;;;;;-5.06;51.92;99582.05;105608;1280;25229;-78
2022/03/11 00:15:54;;;;;;;31.80;28.50;;;;;;;-5.04;51.86;99584.94;105597;1280;22694;-77
2022/03/11 00:18:22;;;;;;;28.60;25.60;;;;;;;-5.04;51.69;99583.20;105705;1279;22563;-79
2022/03/11 00:20:52;;;;;;;31.20;27.70;;;;;;;-5.05;51.65;99577.73;105772;1277;25333;-78
2022/03/11 00:23:20;;;;;;;31.50;27.00;;;;;;;-5.08;51.82;99577.11;105682;1280;22694;-80
2022/03/11 00:25:47;;;;;;;31.20;28.00;;;;;;;-5.10;51.51;99574.54;105869;1279;24250;-79
2022/03/11 00:28:16;;;;;;;32.10;28.70;;;;;;;-5.13;51.96;99573.45;105657;1279;25439;-80
2022/03/11 00:30:43;;;;;;;34.70;30.00;;;;;;;-5.18;51.74;99572.91;105808;1280;24390;-78
2022/03/11 00:33:11;;;;;;;33.10;29.40;;;;;;;-5.23;51.84;99572.89;105633;1281;24272;-78
2022/03/11 00:35:40;;;;;;;32.10;28.80;;;;;;;-5.28;51.89;99570.26;105891;1280;22629;-78
2022/03/11 00:38:08;;;;;;;30.40;26.60;;;;;;;-5.31;51.82;99569.88;105500;1279;22716;-76
2022/03/11 00:40:36;;;;;;;30.20;27.30;;;;;;;-5.36;51.88;99568.58;105732;1281;23331;-76
2022/03/11 00:43:07;;;;;;;32.00;28.50;;;;;;;-5.39;52.04;99563.16;105524;1279;23533;-77
2022/03/11 00:45:35;;;;;;;30.90;27.60;;;;;;;-5.43;51.92;99564.75;105815;1278;22709;-77
2022/03/11 00:48:03;;;;;;;32.40;29.10;;;;;;;-5.47;52.18;99559.73;105931;1279;22593;-77
2022/03/11 00:50:31;;;;;;;36.60;32.80;;;;;;;-5.51;52.11;99561.14;105400;1280;22556;-76
2022/03/11 00:52:59;;;;;;;31.60;28.40;;;;;;;-5.53;52.40;99558.94;105680;1280;22571;-77
2022/03/11 00:55:29;;;;;;;31.90;28.50;;;;;;;-5.56;52.26;99554.92;105971;1278;24244;-76
2022/03/11 00:58:00;;;;;;;33.50;30.00;;;;;;;-5.59;52.36;99550.67;105792;1278;24453;-77
2022/03/11 01:00:28;;;;;;;32.20;28.90;;;;;;;-5.61;52.22;99550.33;105541;1280;22798;-76
2022/03/11 01:02:56;;;;;;;33.20;29.80;;;;;;;-5.63;52.25;99554.90;105659;1280;22693;-80
2022/03/11 01:05:25;;;;;;;33.70;29.00;;;;;;;-5.67;52.38;99557.52;105869;1278;25433;-78
2022/03/11 01:07:56;;;;;;;32.90;29.60;;;;;;;-5.67;52.19;99558.68;105765;1279;24404;-79
2022/03/11 01:10:25;;;;;;;35.10;31.60;;;;;;;-5.70;52.55;99557.91;105466;1280;22532;-76
2022/03/11 01:12:53;;;;;;;34.30;30.90;;;;;;;-5.73;52.34;99557.30;105713;1281;22560;-78
2022/03/11 01:15:21;;;;;;;33.40;30.10;;;;;;;-5.74;52.37;99552.16;105591;1279;22566;-77
2022/03/11 01:17:48;;;;;;;30.60;27.20;;;;;;;-5.73;52.42;99555.02;105617;1280;26642;-77
2022/03/11 01:20:16;;;;;;;31.30;27.90;;;;;;;-5.67;52.34;99555.66;105571;1280;22714;-78
2022/03/11 01:22:44;;;;;;;30.60;27.40;;;;;;;-5.60;52.49;99553.88;105669;1280;22600;-77
2022/03/11 01:25:13;;;;;;;31.00;27.80;;;;;;;-5.53;52.50;99549.13;105441;1278;402386;-77
2022/03/11 01:27:41;;;;;;;30.70;27.60;;;;;;;-5.49;52.49;99550.44;105692;1278;22551;-76
2022/03/11 01:30:11;;;;;;;30.20;26.30;;;;;;;-5.44;52.55;99550.20;105762;1278;22546;-78
2022/03/11 01:32:40;;;;;;;28.80;25.00;;;;;;;-5.38;52.74;99551.67;105671;1278;22534;-77
2022/03/11 01:35:10;;;;;;;30.00;26.70;;;;;;;-5.34;52.93;99550.56;105789;1278;24372;-77
2022/03/11 01:37:40;;;;;;;29.90;26.80;;;;;;;-5.36;52.78;99546.18;105674;1278;22567;-78
2022/03/11 01:40:09;;;;;;;31.30;26.90;;;;;;;-5.38;52.94;99538.34;105828;1278;22763;-77
2022/03/11 01:42:37;;;;;;;33.10;29.80;;;;;;;-5.42;53.01;99539.42;105723;1278;24743;-77
2022/03/11 01:45:05;;;;;;;31.30;28.20;;;;;;;-5.46;52.91;99536.20;105969;1278;24106;-76
2022/03/11 01:47:33;;;;;;;32.10;28.90;;;;;;;-5.52;53.04;99535.35;105653;1280;22563;-77
2022/03/11 01:50:02;;;;;;;33.20;29.80;;;;;;;-5.57;52.90;99542.91;105876;1279;22683;-78
2022/03/11 01:52:30;;;;;;;35.60;31.50;;;;;;;-5.62;52.96;99542.71;105743;1279;24465;-77
2022/03/11 01:54:58;;;;;;;34.40;30.80;;;;;;;-5.66;53.03;99541.34;105958;1280;23052;-78
2022/03/11 01:57:26;;;;;;;34.60;31.00;;;;;;;-5.70;53.32;99544.42;105735;1277;25308;-77
2022/03/11 01:59:56;;;;;;;33.10;29.60;;;;;;;-5.74;53.39;99546.05;105699;1280;22683;-78
2022/03/11 02:02:25;;;;;;;34.10;30.60;;;;;;;-5.78;53.05;99548.02;106017;1278;25494;-77
2022/03/11 02:04:53;;;;;;;32.90;29.60;;;;;;;-5.83;53.35;99545.98;105389;1280;22698;-77
2022/03/11 02:07:21;;;;;;;35.10;31.60;;;;;;;-5.86;53.05;99543.52;106005;1278;23379;-78
2022/03/11 02:09:49;;;;;;;38.10;31.50;;;;;;;-5.88;53.12;99547.44;105719;1277;25329;-77
2022/03/11 02:12:30;;;;;;;37.80;33.60;;;;;;;-5.90;53.16;99546.77;105886;1280;24491;-79
2022/03/11 02:15:02;;;;;;;35.00;31.30;;;;;;;-5.94;53.28;99548.94;106008;1278;22547;-78
2022/03/11 02:17:30;;;;;;;35.60;31.80;;;;;;;-5.97;53.37;99546.92;105542;1278;22535;-78
2022/03/11 02:19:58;;;;;;;33.70;30.10;;;;;;;-5.97;53.17;99547.58;105996;1278;22874;-78
2022/03/11 02:22:27;;;;;;;32.40;29.10;;;;;;;-5.92;53.57;99543.64;106038;1277;22622;-78
2022/03/11 02:24:55;;;;;;;33.50;30.10;;;;;;;-5.88;53.69;99543.27;105970;1278;23962;-75
2022/03/11 02:27:23;;;;;;;34.90;31.20;;;;;;;-5.84;53.83;99541.05;105871;1278;22721;-77
2022/03/11 02:29:51;;;;;;;35.70;31.90;;;;;;;-5.78;53.65;99540.80;105985;1277;24149;-78
2022/03/11 02:32:19;;;;;;;34.00;30.50;;;;;;;-5.70;53.75;99544.41;105642;1278;22628;-80
2022/03/11 02:34:47;;;;;;;35.80;31.00;;;;;;;-5.65;53.90;99541.94;105894;1277;23306;-78
2022/03/11 02:37:15;;;;;;;35.10;31.60;;;;;;;-5.61;54.29;99540.54;106002;1278;25411;-78
2022/03/11 02:39:42;;;;;;;34.60;31.10;;;;;;;-5.58;53.98;99539.69;105928;1278;24244;-78
2022/03/11 02:42:10;;;;;;;36.70;33.10;;;;;;;-5.56;54.38;99546.10;105703;1277;22554;-80
2022/03/11 02:44:39;;;;;;;37.20;33.60;;;;;;;-5.57;54.21;99542.86;105946;1280;22569;-78
2022/03/11 02:47:07;;;;;;;35.60;32.10;;;;;;;-5.60;54.16;99546.83;105741;1280;24247;-77
2022/03/11 02:49:35;;;;;;;36.10;32.20;;;;;;;-5.62;54.24;99549.04;106145;1277;22857;-76
2022/03/11 02:52:03;;;;;;;34.40;30.70;;;;;;;-5.65;54.16;99546.98;105581;1280;22555;-79
2022/03/11 02:54:35;;;;;;;35.40;31.20;;;;;;;-5.68;54.08;99551.70;105734;1280;24093;-80
2022/03/11 02:57:06;;;;;;;37.60;33.50;;;;;;;-5.74;54.17;99550.70;105965;1280;22543;-81
2022/03/11 02:59:33;;;;;;;40.10;36.00;;;;;;;-5.79;53.98;99550.70;105997;1280;22879;-77
2022/03/11 03:02:05;;;;;;;38.70;34.30;;;;;;;-5.82;54.14;99552.41;105672;1280;22543;-78
2022/03/11 03:04:33;;;;;;;38.20;34.30;;;;;;;-5.86;54.06;99548.94;105712;1280;24100;-77
2022/03/11 03:07:01;;;;;;;38.10;34.30;;;;;;;-5.91;54.18;99547.23;105968;1278;22667;-77
2022/03/11 03:09:29;;;;;;;37.60;33.90;;;;;;;-5.97;54.12;99545.36;105902;1278;24278;-77
2022/03/11 03:11:59;;;;;;;38.70;34.90;;;;;;;-6.00;54.11;99545.51;105602;1278;22844;-79
2022/03/11 03:14:29;;;;;;;40.40;36.30;;;;;;;-6.04;54.41;99549.19;105638;1280;23984;-79
2022/03/11 03:16:57;;;;;;;39.50;35.60;;;;;;;-6.08;54.04;99541.23;105855;1278;22547;-78
2022/03/11 03:19:25;;;;;;;37.10;33.00;;;;;;;-6.11;54.12;99542.08;106027;1278;22557;-79
2022/03/11 03:21:53;;;;;;;38.80;32.90;;;;;;;-6.14;54.31;99539.20;106222;1280;25346;-77
2022/03/11 03:24:24;;;;;;;36.50;32.70;;;;;;;-6.13;54.45;99539.98;106005;1280;22720;-77
2022/03/11 03:26:55;;;;;;;35.10;31.50;;;;;;;-6.09;54.52;99540.31;105665;1281;22561;-77
2022/03/11 03:29:24;;;;;;;53.10;32.00;;;;;;;-6.06;54.59;99536.81;105644;1280;25308;-78
2022/03/11 03:31:57;;;;;;;35.50;31.50;;;;;;;-6.02;54.55;99535.52;105776;1279;22989;-79
2022/03/11 03:34:31;;;;;;;37.00;33.00;;;;;;;-5.97;54.79;99535.89;105795;1279;26623;-77
2022/03/11 03:37:01;;;;;;;35.60;31.90;;;;;;;-5.93;54.97;99534.17;105689;1280;22688;-77
2022/03/11 03:39:30;;;;;;;35.60;32.00;;;;;;;-5.91;54.97;99533.76;105705;1280;22707;-78
2022/03/11 03:41:58;;;;;;;38.40;34.40;;;;;;;-5.89;55.20;99540.73;105923;1280;22556;-76
2022/03/11 03:44:26;;;;;;;37.80;33.70;;;;;;;-5.88;55.11;99539.87;105792;1280;24517;-77
2022/03/11 03:46:54;;;;;;;38.60;34.60;;;;;;;-5.83;54.97;99542.70;105398;1281;26765;-75
2022/03/11 03:49:25;;;;;;;37.30;33.30;;;;;;;-5.80;55.50;99542.08;105739;1280;26696;-77
2022/03/11 03:51:53;;;;;;;36.60;33.10;;;;;;;-5.82;55.14;99537.02;105533;1281;23027;-77
2022/03/11 03:54:21;;;;;;;37.00;33.30;;;;;;;-5.86;55.17;99537.82;105613;1280;23456;-77
2022/03/11 03:56:49;;;;;;;38.40;34.20;;;;;;;-5.91;55.19;99540.21;105806;1280;25381;-80
2022/03/11 03:59:18;;;;;;;38.40;34.70;;;;;;;-5.96;55.16;99544.38;105924;1280;23352;-81
2022/03/11 04:01:46;;;;;;;36.00;32.30;;;;;;;-6.02;55.53;99546.21;105845;1280;24122;-81
2022/03/11 04:04:15;;;;;;;38.70;34.80;;;;;;;-6.07;55.24;99547.38;105855;1280;22557;-78
2022/03/11 04:06:42;;;;;;;38.60;34.60;;;;;;;-6.14;55.25;99549.60;105743;1280;22576;-77
2022/03/11 04:09:12;;;;;;;39.10;35.10;;;;;;;-6.18;55.20;99555.10;105668;1280;22613;-80
2022/03/11 04:11:40;;;;;;;40.90;35.90;;;;;;;-6.23;55.26;99554.40;105513;1280;22720;-78
2022/03/11 04:14:11;;;;;;;40.50;36.60;;;;;;;-6.27;55.27;99553.02;105815;1280;22848;-77
2022/03/11 04:16:39;;;;;;;38.60;34.70;;;;;;;-6.31;55.23;99552.00;105827;1280;24269;-77
2022/03/11 04:19:07;;;;;;;40.30;36.50;;;;;;;-6.34;55.44;99553.92;105587;1280;22546;-78
2022/03/11 04:21:36;;;;;;;39.20;35.10;;;;;;;-6.40;55.16;99550.27;105605;1280;24356;-76
2022/03/11 04:24:12;;;;;;;43.80;39.20;;;;;;;-6.45;55.28;99557.90;105646;1280;24228;-79
2022/03/11 04:26:44;;;;;;;39.60;34.10;;;;;;;-6.45;55.23;99559.83;105916;1280;22661;-80
2022/03/11 04:29:12;;;;;;;38.30;34.40;;;;;;;-6.43;55.34;99559.29;105627;1280;22554;-77
2022/03/11 04:31:44;;;;;;;39.10;34.00;;;;;;;-6.39;55.44;99559.81;105692;1280;25254;-78
2022/03/11 04:34:12;;;;;;;36.80;33.10;;;;;;;-6.35;55.48;99565.70;105764;1280;22701;-78
2022/03/11 04:36:42;;;;;;;43.50;38.80;;;;;;;-6.31;55.55;99562.83;105916;1280;25265;-76
2022/03/11 04:39:10;;;;;;;39.50;34.20;;;;;;;-6.27;55.65;99563.64;105928;1280;26082;-79
2022/03/11 04:41:38;;;;;;;40.50;36.40;;;;;;;-6.23;55.95;99564.56;105438;1280;22669;-77
2022/03/11 04:44:08;;;;;;;35.70;32.10;;;;;;;-6.19;55.70;99561.83;105651;1280;22560;-78
2022/03/11 04:46:35;;;;;;;37.90;33.30;;;;;;;-6.15;55.81;99565.14;105915;1280;22549;-79
2022/03/11 04:49:03;;;;;;;37.50;33.70;;;;;;;-6.10;56.13;99570.98;105921;1280;22616;-77
2022/03/11 04:51:33;;;;;;;37.50;33.90;;;;;;;-6.09;55.91;99570.19;105622;1281;23971;-78
2022/03/11 04:54:02;;;;;;;44.50;39.80;;;;;;;-6.09;55.95;99567.90;105690;1280;22632;-78
2022/03/11 04:56:32;;;;;;;39.70;35.50;;;;;;;-6.11;55.92;99569.13;105698;1280;22620;-77
2022/03/11 04:59:02;;;;;;;44.50;39.70;;;;;;;-6.16;55.96;99565.61;105862;1280;22871;-81
2022/03/11 05:01:32;;;;;;;107.90;40.30;;;;;;;-6.19;56.10;99557.42;105619;1280;24100;-79
2022/03/11 05:04:00;;;;;;;49.50;41.30;;;;;;;-6.24;55.94;99554.42;105797;1280;24099;-78
2022/03/11 05:06:28;;;;;;;53.30;41.70;;;;;;;-6.27;56.01;99552.37;105877;1280;24099;-79
2022/03/11 05:08:57;;;;;;;46.50;41.60;;;;;;;-6.34;55.86;99548.46;105854;1280;24253;-78
2022/03/11 05:11:25;;;;;;;46.50;42.00;;;;;;;-6.40;55.86;99551.70;105960;1280;22885;-80
2022/03/11 05:13:53;;;;;;;47.40;42.60;;;;;;;-6.46;56.07;99554.18;105925;1280;23935;-78
2022/03/11 05:16:22;;;;;;;45.90;41.10;;;;;;;-6.53;56.06;99557.99;105718;1280;22569;-78
2022/03/11 05:18:53;;;;;;;81.30;43.10;;;;;;;-6.58;56.08;99566.58;105910;1280;22701;-77
2022/03/11 05:21:21;;;;;;;45.10;40.40;;;;;;;-6.63;55.78;99565.80;105782;1280;23315;-76
2022/03/11 05:23:49;;;;;;;45.20;40.70;;;;;;;-6.67;56.12;99566.87;105623;1280;22535;-77
2022/03/11 05:26:26;;;;;;;45.70;40.10;;;;;;;-6.68;56.30;99570.27;105706;1278;22727;-75
2022/03/11 05:28:59;;;;;;;40.80;36.60;;;;;;;-6.65;56.24;99574.53;105790;1280;22623;-77
2022/03/11 05:31:28;;;;;;;43.40;39.20;;;;;;;-6.58;56.15;99572.83;105619;1280;25373;-76
2022/03/11 05:33:56;;;;;;;43.20;38.50;;;;;;;-6.50;56.32;99573.45;105729;1280;22623;-76
2022/03/11 05:36:24;;;;;;;39.70;35.50;;;;;;;-6.40;56.27;99575.65;105638;1280;22721;-76
2022/03/11 05:38:52;;;;;;;41.80;35.50;;;;;;;-6.31;56.53;99574.26;105613;1280;25675;-76
2022/03/11 05:41:20;;;;;;;52.20;40.60;;;;;;;-6.21;56.28;99576.36;105873;1280;24420;-76
2022/03/11 05:43:48;;;;;;;46.20;37.70;;;;;;;-6.07;56.61;99579.76;105244;1280;22713;-76
2022/03/11 05:46:16;;;;;;;54.10;39.40;;;;;;;-6.01;56.42;99579.48;105664;1280;23991;-76
2022/03/11 05:48:45;;;;;;;53.70;41.70;;;;;;;-5.98;56.37;99575.90;105664;1280;25148;-76
2022/03/11 05:51:13;;;;;;;60.50;40.60;;;;;;;-5.96;56.50;99573.44;105658;1280;22605;-76
2022/03/11 05:53:41;;;;;;;48.00;43.10;;;;;;;-5.96;56.59;99572.67;105629;1280;25336;-76
2022/03/11 05:56:09;;;;;;;54.40;46.10;;;;;;;-5.98;56.64;99570.23;105622;1280;25435;-76
2022/03/11 05:58:37;;;;;;;58.10;51.90;;;;;;;-5.99;56.69;99572.66;105641;1280;22584;-76
2022/03/11 06:01:06;;;;;;;49.60;43.40;;;;;;;-6.02;56.62;99571.96;105654;1280;25326;-76
2022/03/11 06:03:34;;;;;;;48.40;43.40;;;;;;;-6.06;56.70;99573.15;105704;1280;22566;-77
2022/03/11 06:06:02;;;;;;;47.20;42.60;;;;;;;-6.07;56.69;99568.38;105486;1281;23153;-76
2022/03/11 06:08:30;;;;;;;48.10;43.20;;;;;;;-6.06;56.74;99567.63;105420;1281;25268;-76
2022/03/11 06:10:58;;;;;;;48.80;43.20;;;;;;;-6.06;56.79;99573.88;105470;1281;22633;-77
2022/03/11 06:13:26;;;;;;;48.70;43.70;;;;;;;-6.05;56.85;99573.27;105676;1280;24465;-77
2022/03/11 06:15:54;;;;;;;47.40;42.60;;;;;;;-6.05;56.99;99575.72;105681;1280;22556;-76
2022/03/11 06:18:23;;;;;;;48.70;43.80;;;;;;;-6.03;56.92;99575.50;105571;1280;22599;-77
2022/03/11 06:20:51;;;;;;;45.90;41.10;;;;;;;-6.00;57.13;99579.93;105506;1280;22540;-76
2022/03/11 06:23:19;;;;;;;43.50;39.10;;;;;;;-5.95;57.07;99583.48;105615;1280;22562;-76
2022/03/11 06:25:47;;;;;;;49.90;43.00;;;;;;;-5.91;56.94;99586.55;105693;1280;22576;-76
2022/03/11 06:28:15;;;;;;;46.60;40.70;;;;;;;-5.86;57.11;99586.20;105431;1280;25338;-77
2022/03/11 06:30:45;;;;;;;45.90;41.40;;;;;;;-5.81;57.13;99589.83;105926;1280;25535;-77
2022/03/11 06:33:13;;;;;;;48.30;43.20;;;;;;;-5.76;57.09;99591.67;105698;1280;24364;-77
2022/03/11 06:35:41;;;;;;;46.40;41.70;;;;;;;-5.71;57.05;99593.69;105605;1280;24448;-77
2022/03/11 06:38:09;;;;;;;48.90;43.80;;;;;;;-5.66;56.77;99595.82;105580;1280;22695;-76
2022/03/11 06:40:37;;;;;;;44.10;39.60;;;;;;;-5.61;57.22;99594.44;105678;1280;25434;-77
2022/03/11 06:43:05;;;;;;;42.60;38.10;;;;;;;-5.55;57.06;99596.95;105483;1280;24230;-77
2022/03/11 06:45:33;;;;;;;43.80;39.20;;;;;;;-5.48;57.23;99601.37;105712;1281;24445;-77
2022/03/11 06:48:05;;;;;;;41.00;36.90;;;;;;;-5.42;57.36;99601.60;105903;1280;22590;-77
2022/03/11 06:50:33;;;;;;;41.80;37.40;;;;;;;-5.37;57.21;99602.52;105658;1280;22709;-76
2022/03/11 06:53:01;;;;;;;46.90;40.80;;;;;;;-5.30;57.20;99605.52;105930;1280;26571;-77
2022/03/11 06:55:30;;;;;;;48.30;39.90;;;;;;;-5.24;56.94;99608.23;105853;1280;22648;-76
2022/03/11 06:58:00;;;;;;;47.80;42.90;;;;;;;-5.17;57.26;99609.15;105623;1280;25387;-78
2022/03/11 07:00:28;;;;;;;44.20;39.50;;;;;;;-5.09;57.15;99616.48;105581;1280;24342;-77
2022/03/11 07:02:56;;;;;;;43.00;38.50;;;;;;;-4.98;57.24;99615.80;105706;1280;24449;-77
2022/03/11 07:05:25;;;;;;;43.00;38.50;;;;;;;-4.89;57.11;99617.48;105645;1280;25384;-77
2022/03/11 07:07:53;;;;;;;55.70;39.10;;;;;;;-4.79;57.01;99622.06;105669;1280;25411;-78
2022/03/11 07:10:21;;;;;;;42.40;37.90;;;;;;;-4.70;56.97;99620.73;105654;1280;24512;-77
2022/03/11 07:12:49;;;;;;;41.40;36.60;;;;;;;-4.61;57.18;99625.06;105944;1280;22560;-77
2022/03/11 07:15:22;;;;;;;38.00;34.50;;;;;;;-4.53;56.92;99623.23;105812;1280;23936;-78
2022/03/11 07:17:51;;;;;;;42.90;32.10;;;;;;;-4.43;57.07;99626.05;105888;1280;22606;-78
2022/03/11 07:20:19;;;;;;;36.40;32.60;;;;;;;-4.35;56.78;99623.42;105445;1281;22736;-77
2022/03/11 07:22:48;;;;;;;33.10;29.90;;;;;;;-4.28;56.61;99623.95;105757;1280;24453;-78
2022/03/11 07:25:18;;;;;;;36.80;32.70;;;;;;;-4.23;56.60;99623.23;106038;1280;26587;-78
2022/03/11 07:27:48;;;;;;;31.30;28.10;;;;;;;-4.17;56.30;99621.35;105500;1280;25368;-81
2022/03/11 07:30:16;;;;;;;31.70;28.60;;;;;;;-4.11;56.07;99624.61;105440;1283;25597;-79
2022/03/11 07:32:45;;;;;;;31.50;25.70;;;;;;;-4.03;55.81;99623.67;105833;1280;24458;-76
2022/03/11 07:35:13;;;;;;;30.00;26.80;;;;;;;-3.98;55.85;99625.01;105541;1280;26103;-77
2022/03/11 07:37:41;;;;;;;32.60;29.50;;;;;;;-3.89;55.86;99622.48;105554;1280;22548;-78
2022/03/11 07:40:11;;;;;;;31.10;28.00;;;;;;;-3.81;55.78;99624.80;105541;1280;25309;-76
2022/03/11 07:42:42;;;;;;;29.80;26.90;;;;;;;-3.76;55.07;99630.52;105697;1280;22720;-77
2022/03/11 07:45:16;;;;;;;29.00;26.00;;;;;;;-3.75;55.24;99628.12;105599;1281;22574;-76
2022/03/11 07:47:44;;;;;;;29.30;25.70;;;;;;;-3.71;55.09;99630.30;105976;1280;24313;-78
2022/03/11 07:50:13;;;;;;;28.10;24.70;;;;;;;-3.64;55.45;99634.21;105741;1280;22554;-77
2022/03/11 07:52:41;;;;;;;27.50;24.90;;;;;;;-3.56;55.10;99633.46;105708;1280;24448;-77
2022/03/11 07:55:10;;;;;;;27.60;23.80;;;;;;;-3.48;54.95;99634.02;105694;1280;22693;-77
2022/03/11 07:57:39;;;;;;;28.00;23.90;;;;;;;-3.45;54.16;99635.52;105936;1280;24342;-76
2022/03/11 08:00:09;;;;;;;27.70;25.00;;;;;;;-3.46;54.35;99628.74;105531;1280;23843;-76
2022/03/11 08:02:40;;;;;;;58.30;24.50;;;;;;;-3.42;54.47;99630.55;105537;1280;22621;-76
2022/03/11 08:05:14;;;;;;;27.00;24.40;;;;;;;-3.34;54.53;99632.34;105728;1280;24723;-77
2022/03/11 08:07:48;;;;;;;33.90;24.10;;;;;;;-3.26;54.23;99629.68;105910;1280;25453;-77
2022/03/11 08:10:17;;;;;;;28.80;26.00;;;;;;;-3.15;53.66;99631.19;105964;1280;24339;-76
2022/03/11 08:12:46;;;;;;;26.20;20.50;;;;;;;-3.08;53.74;99630.96;105947;1280;23237;-76
2022/03/11 08:15:14;;;;;;;23.00;20.60;;;;;;;-3.04;53.58;99625.46;105343;1280;23028;-78
2022/03/11 08:17:42;;;;;;;27.40;21.50;;;;;;;-2.97;53.45;99621.51;106047;1280;23528;-77
2022/03/11 08:20:10;;;;;;;24.30;21.80;;;;;;;-2.88;53.02;99622.58;105767;1280;25384;-77
2022/03/11 08:22:38;;;;;;;23.60;20.70;;;;;;;-2.80;52.86;99622.75;105502;1281;22591;-75
2022/03/11 08:25:09;;;;;;;25.30;22.60;;;;;;;-2.75;52.89;99623.58;105744;1280;24840;-77
2022/03/11 08:27:40;;;;;;;23.50;21.30;;;;;;;-2.69;52.56;99625.05;106110;1280;22740;-77
2022/03/11 08:30:09;;;;;;;24.60;22.30;;;;;;;-2.63;52.92;99624.86;105820;1280;25607;-77
2022/03/11 08:32:39;;;;;;;27.70;21.50;;;;;;;-2.53;52.18;99625.73;105742;1280;23204;-77
2022/03/11 08:35:08;;;;;;;22.20;19.00;;;;;;;-2.45;52.28;99626.27;106050;1280;22676;-79
2022/03/11 08:37:39;;;;;;;25.40;21.00;;;;;;;-2.37;51.81;99627.86;105901;1280;25341;-76
2022/03/11 08:40:09;;;;;;;23.60;20.90;;;;;;;-2.32;51.66;99629.39;106078;1280;22579;-77
2022/03/11 08:42:39;;;;;;;23.20;20.70;;;;;;;-2.26;51.61;99631.56;106139;1280;22573;-79
2022/03/11 08:45:10;;;;;;;22.10;19.70;;;;;;;-2.19;51.55;99632.27;106151;1280;26701;-80
2022/03/11 08:47:44;;;;;;;21.50;18.10;;;;;;;-2.10;51.08;99630.59;106122;1280;22875;-78
2022/03/11 08:50:12;;;;;;;21.50;19.50;;;;;;;-2.04;50.71;99628.66;105844;1280;22739;-76
2022/03/11 08:52:41;;;;;;;21.50;18.90;;;;;;;-1.99;50.96;99631.59;105809;1280;22645;-75
2022/03/11 08:55:11;;;;;;;21.30;19.10;;;;;;;-1.92;50.46;99629.86;105749;1280;22553;-76
2022/03/11 08:57:40;;;;;;;21.10;19.10;;;;;;;-1.86;50.17;99631.11;105994;1280;23246;-76
2022/03/11 09:00:13;;;;;;;21.80;19.30;;;;;;;-1.79;49.93;99630.05;106172;1280;22716;-77
2022/03/11 09:02:41;;;;;;;20.70;18.50;;;;;;;-1.73;49.59;99632.20;106145;1280;22733;-76
2022/03/11 09:05:11;;;;;;;21.60;17.80;;;;;;;-1.68;49.29;99624.64;105808;1280;22631;-76
2022/03/11 09:07:39;;;;;;;21.20;19.00;;;;;;;-1.61;49.49;99626.30;106075;1280;23266;-77
2022/03/11 09:10:12;;;;;;;19.90;17.70;;;;;;;-1.54;49.48;99625.00;106138;1280;22553;-73
2022/03/11 09:12:41;;;;;;;18.00;16.00;;;;;;;-1.46;48.90;99626.55;105772;1280;22534;-75
2022/03/11 09:15:34;;;;;;;25.20;22.60;;;;;;;-1.39;48.64;99622.89;105606;1280;22730;-74
2022/03/11 09:18:06;;;;;;;21.60;17.30;;;;;;;-1.30;49.46;99616.27;105906;1280;25433;-77
2022/03/11 09:20:34;;;;;;;20.00;18.10;;;;;;;-1.17;49.62;99614.14;105780;1280;23955;-78
2022/03/11 09:23:06;;;;;;;19.60;17.80;;;;;;;-1.04;48.52;99610.67;105672;1280;22715;-77
2022/03/11 09:25:34;;;;;;;17.80;15.90;;;;;;;-0.96;48.20;99609.48;106020;1281;22543;-77
2022/03/11 09:28:06;;;;;;;18.80;16.30;;;;;;;-0.83;48.14;99611.28;105947;1281;22626;-77
2022/03/11 09:30:34;;;;;;;19.20;16.70;;;;;;;-0.76;47.34;99616.36;106114;1280;22583;-76
2022/03/11 09:33:02;;;;;;;15.80;14.20;;;;;;;-0.73;48.08;99614.97;105966;1280;25337;-75
2022/03/11 09:35:30;;;;;;;19.90;14.30;;;;;;;-0.64;47.57;99613.55;105723;1280;22554;-77
2022/03/11 09:37:58;;;;;;;19.60;15.10;;;;;;;-0.60;45.79;99616.20;105949;1280;22658;-77
2022/03/11 09:40:26;;;;;;;25.40;22.00;;;;;;;-0.58;46.81;99615.81;105879;1281;24261;-77
2022/03/11 09:42:56;;;;;;;21.20;18.00;;;;;;;-0.47;46.74;99613.92;106060;1281;22675;-77
2022/03/11 09:45:25;;;;;;;26.10;16.90;;;;;;;-0.38;45.54;99609.70;106160;1281;22756;-77
2022/03/11 09:47:54;;;;;;;20.80;17.40;;;;;;;-0.33;45.45;99604.11;106101;1281;22595;-77
2022/03/11 09:50:29;;;;;;;18.50;16.70;;;;;;;-0.27;45.75;99605.12;105828;1280;22566;-77
2022/03/11 09:52:57;;;;;;;19.30;17.20;;;;;;;-0.21;45.25;99605.34;105855;1281;24426;-76
2022/03/11 09:55:25;;;;;;;24.30;15.30;;;;;;;-0.18;44.61;99610.42;106157;1281;22724;-76
2022/03/11 09:57:55;;;;;;;22.30;18.00;;;;;;;-0.15;43.32;99612.04;106039;1281;22851;-76
2022/03/11 10:00:23;;;;;;;34.70;15.90;;;;;;;-0.15;43.12;99611.31;105831;1281;22582;-76
2022/03/11 10:02:57;;;;;;;25.20;16.30;;;;;;;-0.13;42.90;99610.05;106020;1280;25487;-76
2022/03/11 10:05:53;;;;;;;14.80;13.20;;;;;;;-0.07;42.80;99612.79;105718;1281;22560;-75
2022/03/11 10:08:35;;;;;;;17.00;15.30;;;;;;;-0.01;43.51;99618.60;106025;1281;22690;-77
2022/03/11 10:11:18;;;;;;;25.50;15.30;;;;;;;0.06;42.80;99614.39;105781;1281;22700;-76
2022/03/11 10:13:54;;;;;;;21.50;13.30;;;;;;;0.12;42.47;99616.69;105901;1280;24811;-76
2022/03/11 10:16:25;;;;;;;14.00;12.70;;;;;;;0.16;42.00;99612.61;105897;1280;24457;-77
2022/03/11 10:18:55;;;;;;;16.70;14.50;;;;;;;0.22;41.55;99612.99;105677;1281;22708;-77
2022/03/11 10:21:28;;;;;;;58.80;14.80;;;;;;;0.29;40.96;99613.05;106054;1281;22549;-77
2022/03/11 10:23:57;;;;;;;42.60;13.80;;;;;;;0.31;40.58;99612.52;106204;1280;25316;-76
2022/03/11 10:26:39;;;;;;;111.20;17.40;;;;;;;0.32;40.98;99616.51;106026;1280;24370;-77
2022/03/11 10:29:12;;;;;;;91.80;16.50;;;;;;;0.36;41.77;99617.04;105979;1281;24399;-78
2022/03/11 10:31:45;;;;;;;44.60;15.80;;;;;;;0.42;41.43;99623.48;105850;1281;22572;-77
2022/03/11 10:34:19;;;;;;;36.90;17.10;;;;;;;0.51;41.67;99616.61;105533;1281;22582;-77
2022/03/11 10:36:49;;;;;;;153.80;18.50;;;;;;;0.61;41.14;99618.36;105534;1281;23187;-77
2022/03/11 10:39:25;;;;;;;128.60;17.50;;;;;;;0.65;40.66;99617.82;105640;1281;24366;-77
2022/03/11 10:42:17;;;;;;;49.30;14.40;;;;;;;0.70;41.42;99618.48;105769;1281;25020;-77
2022/03/11 10:45:03;;;;;;;16.10;13.00;;;;;;;0.74;39.65;99610.55;105400;1281;22657;-77
2022/03/11 10:47:37;;;;;;;15.00;12.40;;;;;;;0.79;40.65;99617.89;105642;1281;24313;-77
2022/03/11 10:50:07;;;;;;;18.60;13.50;;;;;;;0.86;39.70;99617.54;105931;1279;22565;-77
2022/03/11 10:52:46;;;;;;;14.50;13.00;;;;;;;0.88;39.62;99616.56;105654;1280;23211;-77
2022/03/11 10:55:28;;;;;;;26.60;12.90;;;;;;;0.92;40.27;99610.80;105349;1281;24335;-78
2022/03/11 10:57:58;;;;;;;14.20;12.60;;;;;;;0.98;39.75;99619.38;105635;1281;23466;-76
2022/03/11 11:00:29;;;;;;;17.40;13.10;;;;;;;1.06;39.80;99612.55;106065;1280;22775;-78
2022/03/11 11:03:05;;;;;;;16.70;14.60;;;;;;;1.13;38.97;99607.54;106085;1280;25427;-76
2022/03/11 11:05:35;;;;;;;40.20;14.90;;;;;;;1.27;40.01;99601.13;105956;1281;22564;-78
2022/03/11 11:08:05;;;;;;;21.70;12.60;;;;;;;1.43;40.09;99604.45;105933;1281;23041;-77
2022/03/11 11:10:43;;;;;;;17.90;13.80;;;;;;;1.52;39.93;99602.87;106326;1281;22722;-77
2022/03/11 11:13:11;;;;;;;17.60;14.60;;;;;;;1.62;39.51;99594.04;105632;1281;22862;-77
2022/03/11 11:15:42;;;;;;;23.60;15.50;;;;;;;1.65;38.40;99590.56;106047;1281;22595;-77
2022/03/11 11:18:13;;;;;;;16.50;14.80;;;;;;;1.65;38.40;99592.91;106487;1281;22699;-76
2022/03/11 11:20:48;;;;;;;15.90;14.30;;;;;;;1.67;38.53;99595.48;105530;1281;22686;-78